KAZO/AZO METAR and TAF weather

Enter ICAO airport designator
Station Type Date Time Source
KAZO METAR 2023/02/05 23:00 UTC NOAA

KAZO 052300Z 27012KT 10SM BKN020 02/M03 A2994 RMK AO2 T00221028


Station Type Date Time Source
KAZO Decoded METAR 2023/02/05 23:00 UTC NOAA

KALAMAZOO/BATTLE CREEK AIRPORT, MI, United States (KAZO) 42-14N 085-33W 272M
Feb 05, 2023 - 06:00 PM EST / 2023.02.05 2300 UTC
Wind: from the W (270 degrees) at 14 MPH (12 KT):0
Visibility: 10 mile(s):0
Sky conditions: mostly cloudy
Temperature: 36.0 F (2.2 C)
Dew Point: 27.0 F (-2.8 C)
Relative Humidity: 69%
Pressure (altimeter): 29.94 in. Hg (1013 hPa)
ob: KAZO 052300Z 27012KT 10SM BKN020 02/M03 A2994 RMK AO2 T00221028
cycle: 23

Station Type Date Time Source
KAZO TAF 2023/02/05 18:45 UTC NOAA

TAF KAZO 051743Z 0518/0618 26011G18KT P6SM BKN025
TEMPO 0518/0522 SCT025
FM060100 VRB03KT P6SM OVC015
FM060600 33004KT P6SM BKN100

Example: see airport list